Siem Pilot — LCPF — position and weather

sailwx.info

Track history (hours):
 
Tides and Currents Weather Stations Pressure Air Temp Water Temp Dewpoint Dewpoint Depression Visibility Wind Speed Wind Dir Waves Ship Positions

Siem Pilot

Last reported at 2016-Sep-18 14:27 UTC. Time now 2016-Sep-24 20:57 UTC.
Position N 37°30' E 015°06'.

Length 88 m; draft 5.6 m.

Type: Law enforcement. MMSI: 257458000.

Date/timePositionNaut miles runAvg speedWind from/ knotsBaromVisibWave heightAir tempDewpointWater temp
2016-Sep-18 14:27N 37°30' E 015°06'101 8.5
2016-Sep-18 02:33N 35°53' E 014°30'0 0.0
2016-Sep-18 01:33N 35°53' E 014°30'0 0.0
2016-Sep-18 00:33N 35°53' E 014°30'0 0.0
2016-Sep-17 22:33N 35°53' E 014°30'0 0.0
2016-Sep-17 20:33N 35°53' E 014°30'0 0.0
2016-Sep-17 19:15N 35°53' E 014°30'  
2016-Sep-15 04:33N 35°57' E 014°34'8 8.0
2016-Sep-15 03:33N 36°04' E 014°40'2110.5
2016-Sep-15 01:33N 36°21' E 014°56'3612.1
2016-Sep-14 22:33N 36°51' E 015°21'6012.1
2016-Sep-14 17:33N 37°50' E 015°31'1211.8
2016-Sep-14 16:33N 38°02' E 015°32'19 6.5
2016-Sep-14 13:34N 38°20' E 015°22'1212.0
2016-Sep-14 12:33N 38°18' E 015°07'2311.6
2016-Sep-14 10:32N 38°15' E 014°38'4812.0
2016-Sep-14 06:33N 38°09' E 013°37'12 4.0
2016-Sep-14 03:29N 38°08' E 013°22'0 0.0
2016-Sep-13 22:32N 38°08' E 013°22'0 0.0
2016-Sep-13 20:32N 38°08' E 013°22'0 0.0
2016-Sep-13 18:26N 38°08' E 013°22'0 0.0
2016-Sep-13 17:23N 38°08' E 013°22'0 0.0
2016-Sep-13 16:26N 38°08' E 013°22'0 0.0
2016-Sep-13 11:32N 38°08' E 013°22'0 0.0
2016-Sep-13 09:32N 38°08' E 013°22'0 0.0
2016-Sep-13 07:32N 38°08' E 013°22'0 0.0
2016-Sep-13 06:32N 38°08' E 013°22'0 0.0
2016-Sep-13 04:32N 38°08' E 013°22'0 0.0
2016-Sep-13 02:32N 38°08' E 013°22'0 0.0
2016-Sep-12 23:32N 38°08' E 013°22'0 0.0
2016-Sep-12 21:32N 38°08' E 013°22'0 0.0
2016-Sep-12 19:32N 38°08' E 013°22'0 0.0
2016-Sep-12 17:32N 38°08' E 013°22'0 0.0
2016-Sep-12 14:32N 38°08' E 013°22'0 0.0
2016-Sep-12 13:32N 38°08' E 013°22'0 0.0
2016-Sep-12 12:32N 38°08' E 013°22'0 0.0
2016-Sep-12 11:32N 38°08' E 013°22'0 0.0
2016-Sep-12 10:32N 38°08' E 013°22'0 0.0
2016-Sep-12 07:32N 38°08' E 013°22'1 0.7
2016-Sep-12 06:34N 38°08' E 013°22'10 3.5
2016-Sep-12 03:34N 38°17' E 013°18'20 9.9
2016-Sep-12 01:33N 38°15' E 012°53'  
Track history (hours):
 
Tides and Currents Weather Stations Pressure Air Temp Water Temp Dewpoint Dewpoint Depression Visibility Wind Speed Wind Dir Waves Ship Positions

Siem Pilot

Last reported at 2016-Sep-18 14:27 UTC. Time now 2016-Sep-24 20:57 UTC.
Position N 37°30' E 015°06'.

Length 88 m; draft 5.6 m.

Type: Law enforcement. MMSI: 257458000.

Date/timePositionNaut miles runAvg speedWind from/ knotsBaromVisibWave heightAir tempDewpointWater temp
2016-Sep-18 14:27N 37°30' E 015°06'101 8.5
2016-Sep-18 02:33N 35°53' E 014°30'0 0.0
2016-Sep-18 01:33N 35°53' E 014°30'0 0.0
2016-Sep-18 00:33N 35°53' E 014°30'0 0.0
2016-Sep-17 22:33N 35°53' E 014°30'0 0.0
2016-Sep-17 20:33N 35°53' E 014°30'0 0.0
2016-Sep-17 19:15N 35°53' E 014°30'  
2016-Sep-15 04:33N 35°57' E 014°34'8 8.0
2016-Sep-15 03:33N 36°04' E 014°40'2110.5
2016-Sep-15 01:33N 36°21' E 014°56'3612.1
2016-Sep-14 22:33N 36°51' E 015°21'6012.1
2016-Sep-14 17:33N 37°50' E 015°31'1211.8
2016-Sep-14 16:33N 38°02' E 015°32'19 6.5
2016-Sep-14 13:34N 38°20' E 015°22'1212.0
2016-Sep-14 12:33N 38°18' E 015°07'2311.6
2016-Sep-14 10:32N 38°15' E 014°38'4812.0
2016-Sep-14 06:33N 38°09' E 013°37'12 4.0
2016-Sep-14 03:29N 38°08' E 013°22'0 0.0
2016-Sep-13 22:32N 38°08' E 013°22'0 0.0
2016-Sep-13 20:32N 38°08' E 013°22'0 0.0
2016-Sep-13 18:26N 38°08' E 013°22'0 0.0
2016-Sep-13 17:23N 38°08' E 013°22'0 0.0
2016-Sep-13 16:26N 38°08' E 013°22'0 0.0
2016-Sep-13 11:32N 38°08' E 013°22'0 0.0
2016-Sep-13 09:32N 38°08' E 013°22'0 0.0
2016-Sep-13 07:32N 38°08' E 013°22'0 0.0
2016-Sep-13 06:32N 38°08' E 013°22'0 0.0
2016-Sep-13 04:32N 38°08' E 013°22'0 0.0
2016-Sep-13 02:32N 38°08' E 013°22'0 0.0
2016-Sep-12 23:32N 38°08' E 013°22'0 0.0
2016-Sep-12 21:32N 38°08' E 013°22'0 0.0
2016-Sep-12 19:32N 38°08' E 013°22'0 0.0
2016-Sep-12 17:32N 38°08' E 013°22'0 0.0
2016-Sep-12 14:32N 38°08' E 013°22'0 0.0
2016-Sep-12 13:32N 38°08' E 013°22'0 0.0
2016-Sep-12 12:32N 38°08' E 013°22'0 0.0
2016-Sep-12 11:32N 38°08' E 013°22'0 0.0
2016-Sep-12 10:32N 38°08' E 013°22'0 0.0
2016-Sep-12 07:32N 38°08' E 013°22'1 0.7
2016-Sep-12 06:34N 38°08' E 013°22'10 3.5
2016-Sep-12 03:34N 38°17' E 013°18'20 9.9
2016-Sep-12 01:33N 38°15' E 012°53'  

Dump ship's entire track history